Time;durP1;ratioP1;P1;durP2;ratioP2;P2;SDS_P1;SDS_P2;PMS_P1;PMS_P2;Temp;Humidity;BMP_temperature;BMP_pressure;BME280_temperature;BME280_humidity;BME280_pressure;Samples;Min_cycle;Max_cycle;Signal;HPM_P1;HPM_P2
2022/05/13 00:01:19;;;;;;;5.70;5.10;;;21.50;99.90;;;;;;5016114;28;20554;-76
2022/05/13 00:03:45;;;;;;;6.50;5.23;;;21.40;99.90;;;;;;5015420;28;20487;-76
2022/05/13 00:06:10;;;;;;;5.40;4.80;;;21.30;99.90;;;;;;5015776;28;20541;-77
2022/05/13 00:08:36;;;;;;;5.53;5.03;;;21.50;99.90;;;;;;5017394;28;20713;-76
2022/05/13 00:11:06;;;;;;;5.50;4.90;;;21.40;99.90;;;;;;5019015;28;20197;-78
2022/05/13 00:13:32;;;;;;;5.77;5.17;;;21.40;99.90;;;;;;5020984;28;20449;-76
2022/05/13 00:15:59;;;;;;;6.03;4.93;;;21.40;99.90;;;;;;5015439;28;20877;-77
2022/05/13 00:18:25;;;;;;;6.20;5.10;;;21.30;99.90;;;;;;5011644;28;20440;-80
2022/05/13 00:20:50;;;;;;;9.13;4.87;;;21.20;99.90;;;;;;5011642;28;20450;-79
2022/05/13 00:23:16;;;;;;;5.60;4.90;;;21.20;99.90;;;;;;5016513;28;20552;-78
2022/05/13 00:25:42;;;;;;;6.83;4.90;;;21.20;99.90;;;;;;5016088;28;20267;-79
2022/05/13 00:28:08;;;;;;;5.10;4.47;;;21.10;99.90;;;;;;5021005;28;20314;-77
2022/05/13 00:30:37;;;;;;;5.73;4.30;;;21.10;99.90;;;;;;5018028;28;20188;-77
2022/05/13 00:33:04;;;;;;;6.90;4.47;;;21.20;99.90;;;;;;5032199;28;20435;-75
2022/05/13 00:35:30;;;;;;;5.60;3.83;;;21.10;99.90;;;;;;5029643;28;20525;-75
2022/05/13 00:37:55;;;;;;;6.50;4.17;;;21.10;99.90;;;;;;5017443;28;20981;-76
2022/05/13 00:40:23;;;;;;;4.40;3.70;;;21.10;99.90;;;;;;5011750;28;20197;-76
2022/05/13 00:42:50;;;;;;;4.50;4.10;;;21.10;99.90;;;;;;5015300;28;20273;-76
2022/05/13 00:45:17;;;;;;;6.37;3.73;;;21.20;99.90;;;;;;5012405;28;20442;-76
2022/05/13 00:47:44;;;;;;;11.03;4.43;;;21.30;99.90;;;;;;5016771;28;20503;-77
2022/05/13 00:50:13;;;;;;;5.00;3.20;;;21.20;99.90;;;;;;5008278;28;20444;-77
2022/05/13 00:52:42;;;;;;;4.50;3.50;;;21.10;99.90;;;;;;5012009;28;20640;-78
2022/05/13 00:55:14;;;;;;;3.60;3.30;;;21.20;99.90;;;;;;5011551;28;20471;-79
2022/05/13 00:57:40;;;;;;;6.63;4.30;;;21.00;99.90;;;;;;5019034;28;21137;-78
2022/05/13 01:00:11;;;;;;;4.70;3.50;;;21.00;99.90;;;;;;5012869;28;20435;-77
2022/05/13 01:02:37;;;;;;;5.77;3.33;;;21.00;99.90;;;;;;5013154;28;20447;-78
2022/05/13 01:05:05;;;;;;;4.63;3.70;;;21.10;99.90;;;;;;5010284;28;20501;-77
2022/05/13 01:07:32;;;;;;;4.17;3.70;;;20.90;99.90;;;;;;5011156;28;20554;-78
2022/05/13 01:10:00;;;;;;;5.03;3.50;;;20.90;99.90;;;;;;5017296;28;20443;-77
2022/05/13 01:12:34;;;;;;;4.23;3.33;;;21.00;99.90;;;;;;5016337;28;20926;-77
2022/05/13 01:15:05;;;;;;;5.87;3.30;;;20.90;99.90;;;;;;5016680;28;20877;-78
2022/05/13 01:20:24;;;;;;;7.63;3.10;;;21.00;99.90;;;;;;5010930;28;20469;-75
2022/05/13 01:22:56;;;;;;;3.47;3.10;;;20.90;99.90;;;;;;5011599;28;20430;-76
2022/05/13 01:25:24;;;;;;;3.83;3.43;;;20.90;99.90;;;;;;5013002;28;21005;-77
2022/05/13 01:27:51;;;;;;;3.53;3.23;;;20.90;99.90;;;;;;5011837;28;20542;-76
2022/05/13 01:30:21;;;;;;;4.20;3.57;;;20.90;99.90;;;;;;5007916;28;20799;-75
2022/05/13 01:32:47;;;;;;;4.93;3.87;;;20.70;99.90;;;;;;5013729;28;20463;-78
2022/05/13 01:35:13;;;;;;;5.00;3.80;;;20.80;99.90;;;;;;5009742;28;20530;-78
2022/05/13 01:37:39;;;;;;;4.10;3.10;;;20.80;99.90;;;;;;5009161;28;20779;-78
2022/05/13 01:40:06;;;;;;;6.53;3.70;;;20.80;99.90;;;;;;5011382;28;20443;-79
2022/05/13 01:42:33;;;;;;;4.23;3.20;;;20.90;99.90;;;;;;5012105;28;20489;-76
2022/05/13 01:45:00;;;;;;;3.77;3.20;;;20.80;99.90;;;;;;5013364;28;20840;-79
2022/05/13 01:47:27;;;;;;;3.70;3.40;;;20.80;99.90;;;;;;5012786;28;20475;-78
2022/05/13 01:49:53;;;;;;;4.70;3.30;;;20.80;99.90;;;;;;5015158;28;20474;-77
2022/05/13 01:52:19;;;;;;;3.70;3.40;;;20.70;99.90;;;;;;5012598;28;20618;-76
2022/05/13 01:54:45;;;;;;;4.10;3.47;;;20.60;99.90;;;;;;5013375;28;20200;-77
2022/05/13 01:57:11;;;;;;;4.80;3.10;;;20.60;99.90;;;;;;5013773;28;20522;-76
2022/05/13 01:59:36;;;;;;;6.60;3.80;;;20.60;99.90;;;;;;5014362;28;20450;-78
2022/05/13 02:02:02;;;;;;;5.87;3.43;;;20.70;99.90;;;;;;5015535;28;20252;-77
2022/05/13 02:04:28;;;;;;;5.43;3.50;;;20.70;99.90;;;;;;5016664;28;20212;-77
2022/05/13 02:06:54;;;;;;;4.03;3.20;;;20.80;99.90;;;;;;5006580;28;21664;-79
2022/05/13 02:09:20;;;;;;;6.27;3.70;;;20.80;99.90;;;;;;5014343;28;22291;-77
2022/05/13 02:11:48;;;;;;;4.13;3.43;;;20.90;99.90;;;;;;5010521;28;20781;-78
2022/05/13 02:14:16;;;;;;;7.93;3.90;;;20.90;99.90;;;;;;5013336;28;20224;-80
2022/05/13 02:16:41;;;;;;;6.60;3.57;;;20.60;99.90;;;;;;5017561;28;20439;-79
2022/05/13 02:19:07;;;;;;;4.83;3.60;;;20.60;99.90;;;;;;5008256;28;20453;-76
2022/05/13 02:21:33;;;;;;;6.73;3.50;;;20.80;99.90;;;;;;5010326;28;20553;-77
2022/05/13 02:23:59;;;;;;;5.50;3.20;;;20.70;99.90;;;;;;5007544;28;20228;-78
2022/05/13 02:26:24;;;;;;;5.13;3.60;;;20.80;99.90;;;;;;5011615;28;21012;-76
2022/05/13 02:28:50;;;;;;;3.43;3.13;;;20.70;99.90;;;;;;5010019;28;20213;-77
2022/05/13 02:31:16;;;;;;;4.80;3.50;;;20.60;99.90;;;;;;5007975;28;20861;-78
2022/05/13 02:33:43;;;;;;;4.37;3.57;;;20.70;99.90;;;;;;5015357;28;20273;-77
2022/05/13 02:36:11;;;;;;;4.57;3.83;;;20.60;99.90;;;;;;5011054;28;20447;-77
2022/05/13 02:38:38;;;;;;;5.57;3.83;;;20.60;99.90;;;;;;5014507;28;21163;-78
2022/05/13 02:41:13;;;;;;;8.13;4.50;;;20.70;99.90;;;;;;5025627;28;20439;-79
2022/05/13 02:43:42;;;;;;;4.83;4.10;;;20.70;99.90;;;;;;5008804;28;20657;-77
2022/05/13 02:46:08;;;;;;;7.10;3.60;;;20.60;99.90;;;;;;5009650;28;20443;-78
2022/05/13 02:48:34;;;;;;;7.33;4.33;;;20.70;99.90;;;;;;5011907;28;21122;-78
2022/05/13 02:51:00;;;;;;;6.77;4.00;;;20.70;99.90;;;;;;5011992;28;20993;-76
2022/05/13 02:53:26;;;;;;;5.80;4.80;;;20.70;99.90;;;;;;5007588;28;20451;-77
2022/05/13 02:55:51;;;;;;;6.10;5.00;;;20.80;99.90;;;;;;5030245;28;21377;-76
2022/05/13 02:58:18;;;;;;;9.33;5.00;;;20.70;99.90;;;;;;5008061;28;20434;-78
2022/05/13 03:00:44;;;;;;;6.83;5.63;;;20.70;99.90;;;;;;5011031;28;20231;-76
2022/05/13 03:03:11;;;;;;;8.00;6.37;;;20.70;99.90;;;;;;5009508;28;20467;-78
2022/05/13 03:05:38;;;;;;;8.97;6.10;;;20.80;99.90;;;;;;5009182;28;20443;-78
2022/05/13 03:08:04;;;;;;;9.23;6.90;;;20.70;99.90;;;;;;5011272;28;20531;-76
2022/05/13 03:10:32;;;;;;;7.90;6.43;;;20.50;99.90;;;;;;5009377;28;20450;-79
2022/05/13 03:12:58;;;;;;;8.93;7.50;;;20.70;99.90;;;;;;5012091;28;20432;-77
2022/05/13 03:15:25;;;;;;;9.60;6.93;;;20.60;99.90;;;;;;5008794;28;20530;-76
2022/05/13 03:17:51;;;;;;;9.73;7.53;;;20.40;99.90;;;;;;5010766;28;20436;-77
2022/05/13 03:20:19;;;;;;;10.17;7.30;;;20.50;99.90;;;;;;5006152;28;20432;-78
2022/05/13 03:22:45;;;;;;;10.57;8.70;;;20.40;99.90;;;;;;5008957;28;20216;-76
2022/05/13 03:25:12;;;;;;;11.80;8.30;;;20.30;99.90;;;;;;5009019;28;20946;-78
2022/05/13 03:27:40;;;;;;;9.60;7.93;;;20.30;99.90;;;;;;5014491;28;20467;-77
2022/05/13 03:30:07;;;;;;;10.30;8.00;;;20.40;99.90;;;;;;5011598;28;20475;-77
2022/05/13 03:32:33;;;;;;;9.30;8.40;;;20.30;99.90;;;;;;5017353;28;20493;-79
2022/05/13 03:34:59;;;;;;;9.23;7.97;;;20.20;99.90;;;;;;5012845;28;20443;-81
2022/05/13 03:37:24;;;;;;;11.63;8.47;;;20.10;99.90;;;;;;5012418;28;20226;-79
2022/05/13 03:39:50;;;;;;;8.40;7.47;;;20.10;99.90;;;;;;5013277;28;20482;-77
2022/05/13 03:42:16;;;;;;;11.23;7.80;;;20.10;99.90;;;;;;5010280;28;20308;-81
2022/05/13 03:44:42;;;;;;;9.30;6.97;;;19.80;99.90;;;;;;5013824;28;20205;-77
2022/05/13 03:47:08;;;;;;;9.13;6.60;;;19.90;99.90;;;;;;5007352;28;20335;-79
2022/05/13 03:49:33;;;;;;;9.90;6.83;;;19.90;99.90;;;;;;5007950;28;20439;-79
2022/05/13 03:51:59;;;;;;;7.97;5.90;;;20.00;99.90;;;;;;5008605;28;20252;-76
2022/05/13 03:54:25;;;;;;;6.27;5.63;;;19.90;99.90;;;;;;5009777;28;20208;-76
2022/05/13 03:56:51;;;;;;;10.00;5.97;;;19.80;99.90;;;;;;5024868;28;20432;-76
2022/05/13 03:59:16;;;;;;;8.43;5.83;;;19.90;99.90;;;;;;5009476;28;20428;-77
2022/05/13 04:01:42;;;;;;;9.30;6.20;;;19.80;99.90;;;;;;5009439;28;20226;-78
2022/05/13 04:04:08;;;;;;;7.43;5.83;;;19.70;99.90;;;;;;5011496;28;20196;-77
2022/05/13 04:09:17;;;;;;;9.60;4.87;;;19.80;99.90;;;;;;5013199;28;20246;-77
2022/05/13 04:16:04;;;;;;;7.47;5.37;;;19.80;99.90;;;;;;5013878;28;20430;-77
2022/05/13 04:17:17;;;;;;;7.00;5.10;;;19.90;99.90;;;;;;5010715;28;20441;-76
2022/05/13 04:19:42;;;;;;;5.03;4.53;;;20.00;99.90;;;;;;5013632;28;20447;-77
2022/05/13 04:22:09;;;;;;;8.50;5.70;;;20.00;99.90;;;;;;5025747;28;20658;-78
2022/05/13 04:24:35;;;;;;;7.27;5.47;;;19.90;99.90;;;;;;5014605;28;20208;-76
2022/05/13 04:27:00;;;;;;;6.27;5.23;;;19.80;99.90;;;;;;5014194;28;20561;-79
2022/05/13 04:29:26;;;;;;;8.57;5.17;;;19.80;99.90;;;;;;5013000;28;20203;-77
2022/05/13 04:31:52;;;;;;;6.50;5.37;;;19.80;99.90;;;;;;5010553;28;20192;-75
2022/05/13 04:34:17;;;;;;;8.30;5.07;;;19.90;99.90;;;;;;5016101;28;20579;-77
2022/05/13 04:36:43;;;;;;;8.10;4.87;;;20.00;99.90;;;;;;5010331;28;20186;-75
2022/05/13 04:39:09;;;;;;;5.33;4.70;;;20.10;99.90;;;;;;5009346;28;20641;-76
2022/05/13 04:44:19;;;;;;;5.10;4.40;;;19.90;99.90;;;;;;5012410;28;20227;-77
2022/05/13 04:46:45;;;;;;;5.60;4.93;;;20.00;99.90;;;;;;5014465;28;20538;-77
2022/05/13 04:49:11;;;;;;;4.50;4.10;;;19.90;99.90;;;;;;5016001;28;20522;-74
2022/05/13 04:51:37;;;;;;;9.93;4.30;;;20.10;99.90;;;;;;5012865;28;20295;-75
2022/05/13 04:54:04;;;;;;;5.57;4.03;;;20.00;99.90;;;;;;5014131;28;20538;-75
2022/05/13 04:56:30;;;;;;;6.20;4.20;;;20.00;99.90;;;;;;5016877;28;20970;-77
2022/05/13 04:58:57;;;;;;;11.23;4.87;;;19.80;99.90;;;;;;5011302;28;20454;-76
2022/05/13 05:01:23;;;;;;;5.40;4.30;;;19.80;99.90;;;;;;5010000;28;20455;-77
2022/05/13 05:03:49;;;;;;;7.07;4.70;;;19.70;99.90;;;;;;5014267;28;20490;-78
2022/05/13 05:06:16;;;;;;;7.30;4.77;;;19.80;99.90;;;;;;5015775;28;21012;-78
2022/05/13 05:08:43;;;;;;;8.43;4.60;;;19.80;99.90;;;;;;5009709;28;20468;-74
2022/05/13 05:11:11;;;;;;;7.57;4.47;;;19.90;99.90;;;;;;5013763;28;20446;-73
2022/05/13 05:14:04;;;;;;;5.20;4.43;;;20.00;99.90;;;;;;5032860;28;20549;-77
2022/05/13 05:16:29;;;;;;;12.00;4.90;;;20.10;99.90;;;;;;5010889;28;20438;-76
2022/05/13 05:18:56;;;;;;;6.37;5.10;;;19.90;99.90;;;;;;5012140;28;20454;-75
2022/05/13 05:21:22;;;;;;;6.07;4.47;;;20.00;99.90;;;;;;5012982;28;20227;-76
2022/05/13 05:23:49;;;;;;;9.87;4.67;;;20.00;99.90;;;;;;5016105;28;20549;-77
2022/05/13 05:26:14;;;;;;;6.50;4.50;;;19.90;99.90;;;;;;5010745;28;20191;-74
2022/05/13 05:28:41;;;;;;;4.87;4.20;;;19.90;99.90;;;;;;5011945;28;20476;-77
2022/05/13 05:31:08;;;;;;;5.07;4.50;;;19.80;99.90;;;;;;5010586;28;20189;-78
2022/05/13 05:33:34;;;;;;;6.80;4.20;;;19.80;99.90;;;;;;5016254;28;20443;-74
2022/05/13 05:35:59;;;;;;;4.40;4.00;;;19.90;99.90;;;;;;5015085;28;20439;-74
2022/05/13 05:38:25;;;;;;;11.13;5.30;;;19.90;99.90;;;;;;5008977;28;20438;-78
2022/05/13 05:40:52;;;;;;;12.07;4.03;;;19.80;99.90;;;;;;5011293;28;20191;-77
2022/05/13 05:43:17;;;;;;;7.70;4.50;;;19.90;99.90;;;;;;5015692;28;20200;-78
2022/05/13 05:45:44;;;;;;;7.50;4.60;;;20.10;99.90;;;;;;5011923;28;20451;-76
2022/05/13 05:48:12;;;;;;;6.50;4.90;;;19.90;99.90;;;;;;5028527;28;20494;-75
2022/05/13 05:50:38;;;;;;;8.40;4.80;;;19.90;99.90;;;;;;5013127;28;20432;-77
2022/05/13 05:53:04;;;;;;;5.30;4.70;;;19.90;99.90;;;;;;5010999;28;20458;-77
2022/05/13 05:58:17;;;;;;;8.53;4.47;;;20.00;99.90;;;;;;5012695;28;20485;-78
2022/05/13 06:00:46;;;;;;;6.33;4.67;;;20.00;99.90;;;;;;5009445;28;21080;-79
2022/05/13 06:03:12;;;;;;;5.87;4.70;;;19.90;99.90;;;;;;5008258;28;20924;-74
2022/05/13 06:05:38;;;;;;;8.37;4.40;;;20.00;99.90;;;;;;5010988;28;20442;-79
2022/05/13 06:08:05;;;;;;;6.80;5.50;;;20.00;99.90;;;;;;5010962;28;20554;-76
2022/05/13 06:10:32;;;;;;;5.87;4.50;;;20.00;99.90;;;;;;5010959;28;20869;-75
2022/05/13 06:12:58;;;;;;;9.23;5.73;;;20.20;99.90;;;;;;5014496;28;20427;-77
2022/05/13 06:15:24;;;;;;;5.50;4.30;;;20.10;99.90;;;;;;5030354;28;20432;-77
2022/05/13 06:17:55;;;;;;;6.33;4.20;;;20.10;99.90;;;;;;5012426;28;20454;-76
2022/05/13 06:20:24;;;;;;;7.60;4.87;;;20.10;99.90;;;;;;5013131;28;20497;-79
2022/05/13 06:22:51;;;;;;;18.27;15.03;;;20.00;99.90;;;;;;5010779;28;20955;-78
2022/05/13 06:25:19;;;;;;;6.73;4.60;;;20.10;99.90;;;;;;5002147;28;20534;-75
2022/05/13 06:27:45;;;;;;;13.03;4.97;;;20.10;99.90;;;;;;5010401;28;21004;-75
2022/05/13 06:30:17;;;;;;;7.17;5.57;;;20.10;99.90;;;;;;5012514;28;21042;-75
2022/05/13 06:32:43;;;;;;;5.40;4.90;;;20.20;99.90;;;;;;5010957;28;20951;-78
2022/05/13 06:35:10;;;;;;;9.90;5.23;;;20.10;99.90;;;;;;5010017;28;20990;-75
2022/05/13 06:37:36;;;;;;;7.10;4.70;;;20.10;99.90;;;;;;5015023;28;20442;-75
2022/05/13 06:40:02;;;;;;;7.90;5.33;;;20.20;99.90;;;;;;5011851;28;20559;-78
2022/05/13 06:42:28;;;;;;;8.07;6.57;;;20.20;99.90;;;;;;5012854;28;21187;-78
2022/05/13 06:44:53;;;;;;;7.17;4.50;;;20.10;99.90;;;;;;5009449;28;20514;-78
2022/05/13 06:47:19;;;;;;;11.03;8.13;;;20.10;99.90;;;;;;5006400;28;20579;-76
2022/05/13 06:49:44;;;;;;;7.33;4.43;;;20.00;99.90;;;;;;5006316;28;20264;-78
2022/05/13 06:52:13;;;;;;;9.10;4.40;;;19.90;99.90;;;;;;5009078;28;20189;-75
2022/05/13 06:54:43;;;;;;;5.57;4.40;;;19.80;99.90;;;;;;5028155;28;20592;-78
2022/05/13 06:57:10;;;;;;;5.40;4.90;;;19.90;99.90;;;;;;5013053;28;20919;-80
2022/05/13 06:59:36;;;;;;;8.77;4.90;;;19.80;99.90;;;;;;5015036;28;20435;-75
2022/05/13 07:02:02;;;;;;;6.50;5.07;;;19.80;99.90;;;;;;5015096;28;20443;-76
2022/05/13 07:04:28;;;;;;;7.50;5.57;;;19.70;99.90;;;;;;5016292;28;20462;-76
2022/05/13 07:06:54;;;;;;;13.33;6.60;;;19.70;99.90;;;;;;5013650;28;20473;-76
2022/05/13 07:09:19;;;;;;;6.60;5.10;;;19.50;99.90;;;;;;5011953;28;20624;-78
2022/05/13 07:11:45;;;;;;;8.20;4.97;;;19.70;99.90;;;;;;5010480;28;20233;-77
2022/05/13 07:14:12;;;;;;;5.93;4.90;;;19.80;99.90;;;;;;5009991;28;20303;-75
2022/05/13 07:16:37;;;;;;;7.43;4.60;;;19.80;99.90;;;;;;5010096;28;20683;-78
2022/05/13 07:19:03;;;;;;;8.00;5.63;;;19.90;99.90;;;;;;5012185;28;20439;-75
2022/05/13 07:21:29;;;;;;;7.50;4.90;;;19.90;99.90;;;;;;5024539;28;20571;-74
2022/05/13 07:23:54;;;;;;;5.77;5.00;;;19.90;99.90;;;;;;5009149;28;20231;-77
2022/05/13 07:26:20;;;;;;;10.47;8.20;;;19.90;99.90;;;;;;5011321;28;20181;-77
2022/05/13 07:28:46;;;;;;;8.47;4.93;;;19.90;99.90;;;;;;4992001;28;20292;-81
2022/05/13 07:31:12;;;;;;;7.07;5.20;;;19.80;99.90;;;;;;5030077;28;20678;-82
2022/05/13 07:33:38;;;;;;;7.03;4.40;;;19.90;99.90;;;;;;5012821;28;20922;-76
2022/05/13 07:36:04;;;;;;;6.70;4.67;;;19.90;99.90;;;;;;5009650;28;20428;-76
2022/05/13 07:38:31;;;;;;;7.47;4.60;;;20.10;99.90;;;;;;5012490;28;20195;-79
2022/05/13 07:41:19;;;;;;;7.60;4.23;;;20.10;99.90;;;;;;5009097;28;20435;-78
2022/05/13 07:43:46;;;;;;;10.30;4.10;;;20.20;99.90;;;;;;5014321;28;20461;-77
2022/05/13 07:46:13;;;;;;;10.40;4.70;;;20.40;99.90;;;;;;5014745;28;20530;-77
2022/05/13 07:48:40;;;;;;;7.80;4.43;;;20.40;99.90;;;;;;5017093;28;20493;-79
2022/05/13 07:51:07;;;;;;;6.93;4.00;;;20.50;99.90;;;;;;5011431;28;20454;-79
2022/05/13 07:53:33;;;;;;;7.20;3.87;;;20.60;99.90;;;;;;5012540;28;20831;-78
2022/05/13 07:55:59;;;;;;;9.60;4.83;;;20.70;99.90;;;;;;5015513;28;20925;-75
2022/05/13 07:58:24;;;;;;;6.93;5.27;;;20.80;99.90;;;;;;5011696;28;20551;-76
2022/05/13 08:00:50;;;;;;;11.03;4.57;;;20.80;99.90;;;;;;5018211;28;20196;-77
2022/05/13 08:03:17;;;;;;;9.53;3.80;;;20.80;99.90;;;;;;5014550;28;20215;-78
2022/05/13 08:05:50;;;;;;;8.90;4.47;;;21.00;99.90;;;;;;5010437;28;20848;-78
2022/05/13 08:08:30;;;;;;;8.80;4.93;;;21.00;99.90;;;;;;5010074;28;20732;-76
2022/05/13 08:10:59;;;;;;;10.50;5.27;;;21.00;99.90;;;;;;5012251;28;20437;-77
2022/05/13 08:13:25;;;;;;;7.27;4.50;;;20.80;99.90;;;;;;5030654;28;20458;-76
2022/05/13 08:15:52;;;;;;;12.27;4.07;;;20.70;99.90;;;;;;5010573;28;21256;-76
2022/05/13 08:18:20;;;;;;;5.57;3.60;;;20.80;99.90;;;;;;5009249;28;20431;-77
2022/05/13 08:20:46;;;;;;;6.83;3.03;;;20.60;99.90;;;;;;5005885;28;20527;-74
2022/05/13 08:23:12;;;;;;;4.43;3.17;;;20.80;99.90;;;;;;5014287;28;21055;-74
2022/05/13 08:25:37;;;;;;;10.10;3.80;;;21.00;99.90;;;;;;5015460;28;20439;-77
2022/05/13 08:28:08;;;;;;;8.90;4.07;;;21.00;99.90;;;;;;5010510;28;20343;-74
2022/05/13 08:30:35;;;;;;;5.60;3.70;;;20.90;99.90;;;;;;5014567;28;20181;-75
2022/05/13 08:33:08;;;;;;;10.13;4.30;;;20.90;99.90;;;;;;5013028;28;21009;-77
2022/05/13 08:35:35;;;;;;;11.10;4.90;;;20.90;99.90;;;;;;5011024;28;20570;-74
2022/05/13 08:38:02;;;;;;;4.20;3.50;;;20.90;99.90;;;;;;5013978;28;20423;-75
2022/05/13 08:40:52;;;;;;;8.40;3.97;;;20.90;99.90;;;;;;5006670;28;22127;-75
2022/05/13 08:43:22;;;;;;;6.70;3.63;;;21.10;99.90;;;;;;5029943;28;20462;-74
2022/05/13 08:45:56;;;;;;;8.23;3.80;;;21.20;99.90;;;;;;5011033;28;20475;-76
2022/05/13 08:48:38;;;;;;;7.57;4.23;;;21.20;99.90;;;;;;5010625;28;20447;-74
2022/05/13 08:51:18;;;;;;;4.97;3.20;;;21.00;99.90;;;;;;5013082;28;20832;-76
2022/05/13 08:53:53;;;;;;;8.40;3.50;;;21.00;99.90;;;;;;5009945;28;20565;-75
2022/05/13 08:56:30;;;;;;;5.07;3.43;;;20.90;99.90;;;;;;5028817;28;20442;-74
2022/05/13 08:59:32;;;;;;;5.00;3.90;;;20.90;99.90;;;;;;5012879;28;20465;-74
2022/05/13 09:02:04;;;;;;;3.43;2.90;;;21.00;99.90;;;;;;5018010;28;20461;-75
2022/05/13 09:04:37;;;;;;;6.27;3.60;;;21.30;99.90;;;;;;5012783;28;20459;-75
2022/05/13 09:07:12;;;;;;;8.07;3.00;;;21.30;99.90;;;;;;5011337;28;20434;-74
2022/05/13 09:09:41;;;;;;;4.03;2.77;;;21.30;99.90;;;;;;5011711;28;20437;-76
2022/05/13 09:12:18;;;;;;;7.90;3.30;;;21.50;99.90;;;;;;5015120;28;20462;-75
2022/05/13 09:15:04;;;;;;;6.83;3.73;;;21.60;99.90;;;;;;5008649;28;20566;-75
2022/05/13 09:17:33;;;;;;;7.00;3.10;;;21.70;99.90;;;;;;5009377;28;20442;-77
2022/05/13 09:20:02;;;;;;;6.50;3.53;;;21.80;99.90;;;;;;5000441;28;20462;-77
2022/05/13 09:22:38;;;;;;;8.93;4.40;;;21.80;99.90;;;;;;5003175;28;20443;-78
2022/05/13 09:25:05;;;;;;;6.67;3.23;;;21.80;99.90;;;;;;5005121;28;20466;-78
2022/05/13 09:27:46;;;;;;;8.07;3.43;;;21.80;99.90;;;;;;5008896;28;20941;-76
2022/05/13 09:30:16;;;;;;;6.20;3.10;;;21.90;99.90;;;;;;5004738;28;20431;-76
2022/05/13 09:32:41;;;;;;;7.77;3.33;;;22.00;99.90;;;;;;5007967;28;20435;-75
2022/05/13 09:35:35;;;;;;;3.40;2.80;;;22.00;99.90;;;;;;5003305;28;21045;-78
2022/05/13 09:38:16;;;;;;;5.10;3.60;;;21.80;99.90;;;;;;5004281;28;20189;-78
2022/05/13 09:40:55;;;;;;;11.10;2.90;;;21.80;99.90;;;;;;5001551;28;20431;-77
2022/05/13 09:43:55;;;;;;;5.90;2.43;;;21.80;99.40;;;;;;5007026;28;20558;-73
2022/05/13 09:46:32;;;;;;;5.93;2.63;;;21.80;99.50;;;;;;4999116;28;20451;-79
2022/05/13 09:49:01;;;;;;;5.33;2.87;;;21.80;98.40;;;;;;4996941;28;20581;-75
2022/05/13 09:52:08;;;;;;;3.50;2.90;;;22.00;97.50;;;;;;4995132;28;20447;-76
2022/05/13 09:54:37;;;;;;;4.17;2.70;;;21.80;96.80;;;;;;5014520;28;20455;-76
2022/05/13 09:57:11;;;;;;;6.03;2.90;;;21.80;97.30;;;;;;5009658;28;20596;-76
2022/05/13 09:59:40;;;;;;;5.37;2.83;;;22.20;96.80;;;;;;5011275;28;20938;-78
2022/05/13 10:02:36;;;;;;;8.53;2.77;;;21.90;96.10;;;;;;5016829;28;20455;-77
2022/05/13 10:05:21;;;;;;;4.23;2.57;;;22.10;96.00;;;;;;5015794;28;20577;-78
2022/05/13 10:07:49;;;;;;;4.50;2.90;;;21.90;95.40;;;;;;5015667;28;20472;-78
2022/05/13 10:16:28;;;;;;;6.07;2.80;;;22.20;94.40;;;;;;5009639;28;20462;-79
2022/05/13 10:19:18;;;;;;;4.03;2.80;;;21.80;95.00;;;;;;5007513;28;20455;-76
2022/05/13 10:22:12;;;;;;;4.83;2.70;;;21.90;94.80;;;;;;5021255;28;20477;-75
2022/05/13 10:24:50;;;;;;;4.63;2.60;;;21.70;94.20;;;;;;5018298;28;21053;-78
2022/05/13 10:27:27;;;;;;;4.33;2.80;;;21.70;94.70;;;;;;5007153;28;20724;-75
2022/05/13 10:29:58;;;;;;;5.20;3.33;;;21.90;94.60;;;;;;5006430;28;21287;-76
2022/05/13 10:32:38;;;;;;;6.80;2.80;;;21.90;93.90;;;;;;5014747;28;20419;-74
2022/05/13 10:35:08;;;;;;;3.60;2.60;;;21.80;94.10;;;;;;5006510;28;20508;-76
2022/05/13 10:38:00;;;;;;;6.93;2.70;;;21.70;93.80;;;;;;5004261;28;20450;-75
2022/05/13 10:40:33;;;;;;;5.03;2.70;;;21.80;93.30;;;;;;5018630;28;20431;-76
2022/05/13 10:43:09;;;;;;;4.37;2.60;;;21.90;93.10;;;;;;5002903;28;21266;-75
2022/05/13 10:45:37;;;;;;;4.93;2.67;;;22.10;93.20;;;;;;5022783;28;20440;-77
2022/05/13 10:48:02;;;;;;;4.27;2.40;;;22.30;92.40;;;;;;5009674;28;20463;-76
2022/05/13 10:50:53;;;;;;;3.03;2.47;;;22.30;91.40;;;;;;5006056;28;20442;-76
2022/05/13 10:53:24;;;;;;;4.17;2.50;;;22.30;92.20;;;;;;5004706;28;20918;-75
2022/05/13 10:56:04;;;;;;;5.90;2.60;;;22.40;92.10;;;;;;5002342;28;20443;-75
2022/05/13 10:58:51;;;;;;;6.50;2.50;;;22.50;92.20;;;;;;5022549;28;21255;-78
2022/05/13 11:01:31;;;;;;;3.50;2.60;;;22.60;91.20;;;;;;5006440;28;20465;-77
2022/05/13 11:04:30;;;;;;;4.67;2.40;;;22.50;90.20;;;;;;5007338;28;20462;-77
2022/05/13 11:07:14;;;;;;;8.10;3.23;;;22.30;90.00;;;;;;5010630;28;20498;-76
2022/05/13 11:09:51;;;;;;;3.50;2.87;;;22.30;88.80;;;;;;5008249;28;20423;-74
2022/05/13 11:12:39;;;;;;;3.77;2.50;;;22.20;88.80;;;;;;5009056;28;20417;-78
2022/05/13 11:15:27;;;;;;;3.57;2.70;;;22.20;89.00;;;;;;5006103;28;20451;-76
2022/05/13 11:18:16;;;;;;;3.77;2.50;;;22.30;89.70;;;;;;5007311;28;20465;-78
2022/05/13 11:20:52;;;;;;;3.13;2.00;;;22.40;89.20;;;;;;5004438;28;20444;-77
2022/05/13 11:23:32;;;;;;;3.80;2.40;;;22.40;84.30;;;;;;5007209;28;21189;-78
2022/05/13 11:26:44;;;;;;;4.33;2.60;;;22.30;84.00;;;;;;5006178;28;21444;-78
2022/05/13 11:29:19;;;;;;;3.53;2.40;;;22.40;85.30;;;;;;5006510;28;20558;-79
2022/05/13 11:32:08;;;;;;;6.83;2.70;;;22.50;85.60;;;;;;5005152;28;20423;-79
2022/05/13 11:34:56;;;;;;;4.00;2.17;;;22.40;84.80;;;;;;5003769;28;20467;-79
2022/05/13 11:37:25;;;;;;;5.87;2.43;;;22.40;83.60;;;;;;5011550;28;20521;-77
2022/05/13 11:40:27;;;;;;;6.13;2.50;;;22.60;84.10;;;;;;5005213;28;20436;-79
2022/05/13 11:43:27;;;;;;;4.63;2.53;;;22.70;84.20;;;;;;5007240;28;20459;-77
2022/05/13 11:46:09;;;;;;;4.47;2.33;;;23.00;80.80;;;;;;5010647;28;20442;-76
2022/05/13 11:48:43;;;;;;;4.00;2.60;;;22.90;79.20;;;;;;5014397;28;20532;-78
2022/05/13 11:51:17;;;;;;;4.83;2.70;;;23.20;80.60;;;;;;5002930;28;20440;-78
2022/05/13 11:53:48;;;;;;;3.87;2.30;;;23.60;77.60;;;;;;5001939;28;20455;-78
2022/05/13 11:56:19;;;;;;;3.63;2.50;;;23.90;73.40;;;;;;5014870;28;20527;-77
2022/05/13 11:58:45;;;;;;;3.97;2.70;;;23.90;71.50;;;;;;5007665;28;20427;-79
2022/05/13 12:01:11;;;;;;;3.90;2.30;;;24.80;69.90;;;;;;5009173;28;20431;-80
2022/05/13 12:03:38;;;;;;;7.97;2.77;;;26.00;68.00;;;;;;5001999;28;21649;-76
2022/05/13 12:06:08;;;;;;;11.63;2.70;;;27.10;66.10;;;;;;5007699;28;20961;-75
2022/05/13 12:08:41;;;;;;;4.77;2.47;;;28.60;61.50;;;;;;5008247;28;20488;-78
2022/05/13 12:11:49;;;;;;;10.73;3.27;;;28.90;58.20;;;;;;5007538;28;20535;-79
2022/05/13 12:14:20;;;;;;;6.97;3.37;;;29.30;56.20;;;;;;5017521;28;20620;-77
2022/05/13 12:16:52;;;;;;;4.17;2.60;;;29.80;54.60;;;;;;5001852;28;20446;-75
2022/05/13 12:19:20;;;;;;;3.87;2.37;;;30.10;52.80;;;;;;5004116;28;20447;-78
2022/05/13 12:21:51;;;;;;;5.03;2.40;;;30.60;52.70;;;;;;5006634;28;20449;-78
2022/05/13 12:24:22;;;;;;;4.00;2.57;;;31.00;50.80;;;;;;5003536;28;20459;-77
2022/05/13 12:26:51;;;;;;;5.43;3.03;;;31.30;49.60;;;;;;5005037;28;20528;-77
2022/05/13 12:29:19;;;;;;;5.50;2.63;;;31.10;48.70;;;;;;5009456;28;20906;-76
2022/05/13 12:31:54;;;;;;;2.70;2.20;;;31.00;48.50;;;;;;5012932;28;20459;-78
2022/05/13 12:37:40;;;;;;;5.53;2.40;;;30.20;49.20;;;;;;5017755;28;20446;-74
2022/05/13 12:40:21;;;;;;;3.47;2.17;;;30.70;48.60;;;;;;5010013;28;20449;-76
2022/05/13 12:42:47;;;;;;;2.30;2.10;;;31.00;48.00;;;;;;5010137;28;20420;-78
2022/05/13 12:45:28;;;;;;;5.27;3.23;;;31.30;46.50;;;;;;5012631;28;20424;-78
2022/05/13 12:48:08;;;;;;;3.40;2.40;;;31.30;46.30;;;;;;5011859;28;20215;-78
2022/05/13 12:50:51;;;;;;;5.17;2.70;;;31.50;46.10;;;;;;5012770;28;20493;-76
2022/05/13 12:53:28;;;;;;;4.90;2.50;;;30.50;46.10;;;;;;5015598;28;20439;-75
2022/05/13 12:56:08;;;;;;;3.20;2.37;;;29.50;47.00;;;;;;5012864;28;20427;-78
2022/05/13 12:58:36;;;;;;;4.10;2.30;;;29.50;47.20;;;;;;5014545;28;21575;-74
2022/05/13 13:01:03;;;;;;;3.20;2.20;;;29.40;47.40;;;;;;5011986;28;20443;-75
2022/05/13 13:03:34;;;;;;;2.77;2.37;;;29.30;47.10;;;;;;5012091;28;20466;-73
2022/05/13 13:06:06;;;;;;;6.17;2.40;;;29.20;48.00;;;;;;5014232;28;20852;-75
2022/05/13 13:08:35;;;;;;;4.37;2.47;;;29.40;48.20;;;;;;5012693;28;21028;-74
2022/05/13 13:11:26;;;;;;;6.70;2.40;;;28.80;48.60;;;;;;5014892;28;20782;-73
2022/05/13 13:13:56;;;;;;;3.17;2.10;;;29.30;48.40;;;;;;5014334;28;20458;-74
2022/05/13 13:16:37;;;;;;;7.90;2.30;;;29.20;47.30;;;;;;5015311;28;20427;-76
2022/05/13 13:19:17;;;;;;;3.00;2.40;;;28.90;45.90;;;;;;5026692;28;20435;-73
2022/05/13 13:21:43;;;;;;;3.60;2.10;;;28.10;47.20;;;;;;5015626;28;20859;-74
2022/05/13 13:24:19;;;;;;;4.47;2.30;;;28.10;47.90;;;;;;5013743;28;20494;-77
2022/05/13 13:26:50;;;;;;;3.40;2.27;;;27.60;48.70;;;;;;5013434;28;20188;-77